logo
App data

Epsilon

Epsilon is a hybrid stealth-action near-future tactical shooter where pre-planning and commanding your squad is essential for survival. Through high intensity kinetic operations, Epsilon is the unit tasked by Unipol to counter Eastern European militias engaged in human trafficking.
Store | Hub | SteamDB | Site
Developer: Serellan LLC Publisher: Serellan LLC
Genre: Action, Indie, Strategy, Early Access
Languages: English
Tags: Early Access (38), Action (34), Strategy (32), Indie (31), Tactical (15), FPS (10)
Category: Single-player, Steam Achievements, Steam Trading Cards, Partial Controller Support
Release date: Oct 1, 2015
N/A
Old userscore: 56% Owners: 20,000 .. 50,000
Followers: 1,936
YouTube stats: 3,016 views and 87 comments for top 50 videos uploaded last week, 3 new videos uploaded yesterday.
Playtime total: 06:57 (average) 07:12 (median)

Steam Spy is still in beta, so expect major bugs.

Owners data:

Access restricted.

This feature is only available to users with special access rights. Sorry.

If you want to proceed, you need to register or log in first and then back Steam Spy on Patreon. Look for Indie or Pro pledge.

Don't forget to use the same email as on Steam Spy!

Audience in 2 weeks:

Access restricted.

This feature is only available to users with special access rights. Sorry.

If you want to proceed, you need to register or log in first and then back Steam Spy on Patreon. Look for Indie or Pro pledge.

Don't forget to use the same email as on Steam Spy!

Peak daily concurrent players:

CCU data courtesy of SteamDB. Used with permission.

Hourly concurrent players:

Followers over time

Access restricted.

This feature is only available to users with special access rights. Sorry.

If you want to proceed, you need to register or log in first and then back Steam Spy on Patreon. Look for Indie or Pro pledge.

Don't forget to use the same email as on Steam Spy!

Views for top 50 videos on YouTube for this game:

Games similar to this one:

# Game Release date
Price
Score rank
(Userscore / Metascore)
Owners
Players
Playtime (Median)
1 Joe's Diner Mar 31, 2015 $7.99N/A (N/A)20,000 .. 50,0000%00:00 (00:00)
2 Final Dusk Dec 12, 2014 $2.99N/A (N/A)100,000 .. 200,0000%00:00 (00:00)
3 An Imp? A Fiend! Mar 16, 2015 $0.59N/A (N/A)20,000 .. 50,0000%00:00 (00:00)
4 Just Get Through Jan 30, 2015 $4.99N/A (N/A)20,000 .. 50,0000%00:00 (00:00)
5 Celestian Tales: Old North Aug 10, 2015 $12.99N/A (N/A)20,000 .. 50,0000%00:00 (00:00)
6 Elements: Soul of Fire Jan 12, 2015 N/AN/A (N/A)50,000 .. 100,0000%00:00 (00:00)
7 Parcel Apr 22, 2015 $4.99N/A (N/A)0 .. 20,0000%00:00 (00:00)
8 The Lady Jan 29, 2015 FreeN/A (N/A)50,000 .. 100,0000%00:00 (00:00)
9 Solstice Mar 23, 2016 $19.99N/A (N/A)50,000 .. 100,0000%00:00 (00:00)
10 Into The Gloom Apr 7, 2015 $2.99N/A (N/A)0 .. 20,0000%00:00 (00:00)
11 Data Hacker: Reboot Apr 17, 2015 $4.99N/A (N/A)20,000 .. 50,0000%00:00 (00:00)
12 Zotrix Jul 24, 2015 $12.99N/A (N/A)50,000 .. 100,0000%00:00 (00:00)
13 1Quest Dec 3, 2014 $3.99N/A (N/A)50,000 .. 100,0000%00:00 (00:00)
14 Vox Populi Vox Dei 2 Mar 17, 2015 $2.99N/A (N/A)50,000 .. 100,0000%00:00 (00:00)
15 Squirreltopia Jan 12, 2015 $0.99N/A (N/A)20,000 .. 50,0000%00:00 (00:00)
16 Vapour Jul 3, 2015 $0.99N/A (N/A)50,000 .. 100,0000%00:00 (00:00)
17 An Assassin in Orlandes May 12, 2015 $4.99N/A (N/A)20,000 .. 50,0000%00:00 (00:00)
18 Avenging Angel Jun 15, 2018 $17.99N/A (N/A)0 .. 20,0000%00:00 (00:00)
19 This Book Is A Dungeon Oct 9, 2015 $4.99N/A (N/A)0 .. 20,0000%00:00 (00:00)
20 Albert and Otto Oct 28, 2015 $4.99N/A (N/A/69%)100,000 .. 200,0000%00:00 (00:00)
21 Good Robot Apr 5, 2016 $8.99N/A (N/A/67%)20,000 .. 50,0000%00:00 (00:00)
22 Age of Survival Aug 25, 2015 $18.99N/A (N/A)0 .. 20,0000%00:00 (00:00)
23 Remnants Of Isolation May 1, 2015 $1.99N/A (N/A)0 .. 20,0000%00:00 (00:00)
24 Girl Amazon Survival Aug 16, 2016 $2.99N/A (N/A)50,000 .. 100,0000%00:00 (00:00)
25 Face It - A game to fight inner demons Jun 9, 2017 $3.99N/A (N/A)100,000 .. 200,0000%00:00 (00:00)
26 Shot In The Dark Jun 10, 2015 FreeN/A (N/A)50,000 .. 100,0000%00:00 (00:00)
27 Lucius Demake Aug 8, 2016 $4.99N/A (N/A)0 .. 20,0000%00:00 (00:00)
28 Stargazer May 28, 2015 $4.99N/A (N/A)50,000 .. 100,0000%00:00 (00:00)
29 SUPER DISTRO Jul 22, 2015 $0.99N/A (N/A)200,000 .. 500,0000%00:00 (00:00)
30 16bit Trader Jun 4, 2015 $2.99N/A (N/A)100,000 .. 200,0000%00:00 (00:00)
31 Gynophobia Jul 31, 2015 $1.99N/A (N/A)20,000 .. 50,0000%00:00 (00:00)
32 Six Sides of the World Jan 20, 2016 $4.99N/A (N/A)20,000 .. 50,0000%00:00 (00:00)
33 Iggy's Egg Adventure Aug 27, 2015 $4.99N/A (N/A)20,000 .. 50,0000%00:00 (00:00)
34 Toby: The Secret Mine Oct 20, 2015 $9.99N/A (N/A)20,000 .. 50,0000%00:00 (00:00)
35 Tales of the Elements Oct 7, 2016 $6.99N/A (N/A)50,000 .. 100,0000%00:00 (00:00)
36 Love is Blind: Mutants Mar 15, 2016 N/AN/A (N/A)50,000 .. 100,0000%00:00 (00:00)
37 A Trip to Yugoslavia: Director's Cut Feb 22, 2017 $0.49N/A (N/A)50,000 .. 100,0000%00:00 (00:00)
38 Nefarious Jan 23, 2017 $14.99N/A (N/A/67%)0 .. 20,0000%00:00 (00:00)
39 Planet R-12 May 5, 2016 $0.99N/A (N/A)50,000 .. 100,0000%00:00 (00:00)
40 Kaboom Monsters Jul 7, 2016 $2.99N/A (N/A)20,000 .. 50,0000%00:00 (00:00)
41 Life is Hard Nov 3, 2015 $9.99N/A (N/A)50,000 .. 100,0000%00:00 (00:00)
42 Hero Battle Apr 28, 2016 $6.99N/A (N/A)50,000 .. 100,0000%00:00 (00:00)
43 OmniBus May 26, 2016 $4.99N/A (N/A/55%)20,000 .. 50,0000%00:00 (00:00)
44 Scrap Garden May 6, 2016 $9.99N/A (N/A/58%)50,000 .. 100,0000%00:00 (00:00)
45 Save Your Mother Dec 3, 2015 $3.99N/A (N/A)0 .. 20,0000%00:00 (00:00)
46 Where's My Helmet? May 20, 2016 $0.99N/A (N/A)20,000 .. 50,0000%00:00 (00:00)
47 P.A.M.E.L.A. Mar 9, 2017 $24.99N/A (N/A)0 .. 20,0000%00:00 (00:00)
48 Fly and Destroy Jul 27, 2016 $4.99N/A (N/A)50,000 .. 100,0000%00:00 (00:00)
49 Squirbs Jan 6, 2016 $1.99N/A (N/A)100,000 .. 200,0000%00:00 (00:00)
50 Sundered: Eldritch Edition Jul 28, 2017 $19.99N/A (N/A)100,000 .. 200,0000%00:00 (00:00)
51 Artificial Defense Jun 1, 2016 $2.99N/A (N/A)20,000 .. 50,0000%00:00 (00:00)
52 Root Of Evil: The Tailor Dec 9, 2016 $6.99N/A (N/A)0 .. 20,0000%00:00 (00:00)
53 The Last Hope: Trump vs Mafia - North Korea Jan 20, 2017 $1.99N/A (N/A)100,000 .. 200,0000%00:00 (00:00)
54 The End Is Nigh Jul 12, 2017 $14.99N/A (N/A/84%)100,000 .. 200,0000%00:00 (00:00)
55 Heroes & Legends: Conquerors of Kolhar Aug 21, 2014 $9.99N/A (N/A)50,000 .. 100,0000%00:00 (00:00)
56 Chip Apr 25, 2014 $4.99N/A (N/A)200,000 .. 500,0000%00:00 (00:00)
57 See No Evil Aug 25, 2014 $0.99N/A (N/A)100,000 .. 200,0000%00:00 (00:00)
58 Robowars Oct 24, 2014 $14.99N/A (N/A)100,000 .. 200,0000%00:00 (00:00)
59 Eschalon: Book II Jul 12, 2010 $4.19N/A (N/A)20,000 .. 50,0000%00:00 (00:00)
60 QuestRun Apr 18, 2014 $2.99N/A (N/A)200,000 .. 500,0000%00:00 (00:00)
61 Puzzle Quest 2 Aug 12, 2010 N/AN/A (N/A/83%)50,000 .. 100,0000%00:00 (00:00)
62 Pier Solar and the Great Architects Sep 29, 2014 $14.99N/A (N/A/73%)50,000 .. 100,0000%00:00 (00:00)
63 SpellForce 2: Faith in Destiny Jun 19, 2012 $14.99N/A (N/A/55%)100,000 .. 200,0000%00:00 (00:00)
64 Selfie : Sisters of the Amniotic Lens May 8, 2015 N/AN/A (N/A)100,000 .. 200,0000%00:00 (00:00)
65 Avernum 4 May 11, 2012 $1.49N/A (N/A)50,000 .. 100,0000%00:00 (00:00)
66 Duet Aug 3, 2015 $4.99N/A (N/A)50,000 .. 100,0000%00:00 (00:00)
67 10,000,000 Jan 15, 2013 $4.99N/A (N/A/67%)100,000 .. 200,0000%00:00 (00:00)
68 Battlepaths May 30, 2014 $2.99N/A (N/A)200,000 .. 500,0000%00:00 (00:00)
69 Redshirt Nov 13, 2013 $9.99N/A (N/A/62%)20,000 .. 50,0000%00:00 (00:00)
70 Trace Vector Aug 19, 2014 $6.99N/A (N/A)0 .. 20,0000%00:00 (00:00)
71 Citizens of Earth Jan 20, 2015 $14.99N/A (N/A/66%)100,000 .. 200,0000%00:00 (00:00)

Tags over time:

Access restricted.

This feature is only available to users with special access rights. Sorry.

If you want to proceed, you need to register or log in first and then back Steam Spy on Patreon. Look for Indie or Pro pledge.

Don't forget to use the same email as on Steam Spy!

Owners of this game also own:

Access restricted.

This feature is only available to users with special access rights. Sorry.

If you want to proceed, you need to register or log in first and then back Steam Spy on Patreon. Look for Indie or Pro pledge.

Don't forget to use the same email as on Steam Spy!

Playtime distribution:

Access restricted.

This feature is only available to users with special access rights. Sorry.

If you want to proceed, you need to register or log in first and then back Steam Spy on Patreon. Look for Indie or Pro pledge.

Don't forget to use the same email as on Steam Spy!

Playtime (2 weeks):

Access restricted.

This feature is only available to users with special access rights. Sorry.

If you want to proceed, you need to register or log in first and then back Steam Spy on Patreon. Look for Indie or Pro pledge.

Don't forget to use the same email as on Steam Spy!

User reviews:

Login required.

Please register or log in to see this information.